Thursday, March 05, 2015
22:31 UTC
  |  Log In   |  Register Free
Airport Search:

Big Bear City Airport
(KL35)

Big Bear City Airport Diagram
No Airport Diagram Available

FAA data valid effective March 05, 2015 - April 30, 2015 (unless otherwise noted).

 
 
 
 
 
 
 
 
 
 
 
 
 
 

Current Aviation Weather for Big Bear City Airport (KL35)

The most recent METAR observation for KL35 was updated at: 2216
METAR Summary (Translated METAR)
KL35
052155Z AUTO 05009KT 10SM CLR 09/M18 A3034 RMK AO2
KSBD
052147Z 00000KT 10SM FEW200 22/M08 A3020
(21.4 nm SW from KL35)
KAPV
191256Z AUTO 05004KT 10SM FEW075 SCT090 BKN110 18/18 A2996 RMK AO2 SLP144 T01830178 $
(24.8 nm NW from KL35)
TAF
No TAF information found within 50 nm of KSBD
  Airport Weather Conditions for KL35

 Current Weather at L35
46° F
Fair
Northeast winds at 11.5 mph
L35 NOAA Radar

Pressure: 30.34 in
Humidity: 15%
Wind: Northeast at 11.5 MPH (10 KT)
Dew Point: 1.4°F
Visibility: 10.00 mi


Airport Weather Forecast for KL35

Translated METAR and TAF for KSBD
Translated METAR for KSBD (2230 UTC 05 March 2015)
found at http://aviationweather.gov/adds/metars/
 
METAR text: KSBD 052147Z 00000KT 10SM FEW200 22/M08 A3020
Conditions at: KSBD (SAN BERNARDINO , CA, US) observed 2147 UTC 05 March 2015
Temperature: 22.0°C (72°F)
Dewpoint: -8.0°C (18°F) [RH = 13%]
Pressure (altimeter): 30.20 inches Hg (1022.8 mb)
Winds: calm
Visibility: 10 or more miles (16+ km)
Ceiling: at least 12,000 feet AGL
Clouds: few clouds at 20000 feet AGL
Weather: no significant weather observed at this time
Translated TAF for KSBD

There is no translated TAF available for this airport

Find All Airport Services Find A Hotel Find A Rental Car Find A Golf Course Find A Restaurant $100 Hamburger



FBO's on the Field
FBO Company Facility Photos Services Transportation Aviation Fuel Prices: Prices include tax
Catering Weather Repair Courtesy Rental Type 100LL JetA JetA+ MOGAS 8087
 
Big Bear Airport

This FBO has not yet been rated
FS:Epic
Last Updated: Feb-05
Login to update fuel prices
SS:
Contact Big Bear AirportMore FBO Information
 
Add another FBO Facility Photos Catering Weather Repair Courtesy Rental Type 100LL JetA JetA+ MOGAS 8087
Services Transportation Aviation Fuel Prices: Prices include tax


model-print
model-print
model-print
model-print